Deckers, Colorado
Current Conditions -  °F | °C
As of 6:53 PM on Saturday 20 Dec 2014 (Local Time) from KAPA Reporting Station
Overcast Overcast  
Wind Chill: 34°   Ceiling: 22000
Heat Index: 34°   Visibility: 10mi
Dew Point: 23°   Wind: 3mph
Humidity: 64%   Direction: 200°SSW
Pressure: 29.93"   Gusts: NA
Location:  39.3043°N, 105.131°W
Report Text: KAPA 210153Z 20003KT 10SM FEW120 OVC220 01/M05 A2993 RMK AO2 SLP157 T00111050
Loading
Personal Weather Stations






























Interactive Weather Map New forecast layout! Learn more

10-Day Weather Forecast

Advertisements
Track Severe Weather on mobile